Time;durP1;ratioP1;P1;durP2;ratioP2;P2;SDS_P1;SDS_P2;PMS_P1;PMS_P2;Temp;Humidity;BMP_temperature;BMP_pressure;BME280_temperature;BME280_humidity;BME280_pressure;Samples;Min_cycle;Max_cycle;Signal;HPM_P1;HPM_P2
2024/04/20 06:37:52;;;;;;;12.57;2.97;;;;;;;4.37;98.54;96562.09;2236041;26;20610;-63
2024/04/20 06:40:00;;;;;;;8.57;3.00;;;;;;;4.67;97.71;96564.88;2235922;26;20620;-64
2024/04/20 06:42:14;;;;;;;16.42;5.60;;;;;;;4.44;95.44;96568.00;2225626;26;20575;-65
2024/04/20 06:46:08;;;;;;;9.40;2.72;;;;;;;5.19;94.90;96575.75;2239088;26;20559;-64
2024/04/20 06:47:09;;;;;;;18.48;2.75;;;;;;;5.40;94.36;96576.97;2236323;26;20223;-64
2024/04/20 06:48:11;;;;;;;7.65;2.40;;;;;;;5.73;93.47;96577.00;2235664;26;20211;-64
2024/04/20 06:49:13;;;;;;;8.82;2.38;;;;;;;5.61;90.59;96572.13;2229623;26;20215;-64
2024/04/20 06:53:11;;;;;;;6.15;2.30;;;;;;;5.05;92.21;96587.31;2269594;25;20569;-64
2024/04/20 06:54:12;;;;;;;9.35;2.80;;;;;;;5.05;93.76;96589.91;2261605;26;20260;-64
2024/04/20 06:55:14;;;;;;;9.45;2.25;;;;;;;5.18;91.57;96585.28;2248396;26;20212;-64
2024/04/20 06:57:09;;;;;;;7.45;2.35;;;;;;;5.02;90.93;96584.78;2227602;26;20571;-64
2024/04/20 07:31:45;;;;;;;8.80;2.63;;;;;;;4.38;95.56;96642.22;2260832;25;20620;-66
2024/04/20 07:34:26;;;;;;;7.43;2.75;;;;;;;4.53;94.39;96643.66;2245180;26;20560;-63
2024/04/20 07:37:05;;;;;;;11.55;2.90;;;;;;;4.50;92.65;96648.88;2256677;25;20618;-63
2024/04/20 07:39:38;;;;;;;13.35;3.45;;;;;;;4.36;92.80;96636.22;2222429;26;20577;-63
2024/04/20 07:42:00;;;;;;;13.48;3.00;;;;;;;4.48;92.76;96653.25;2276544;25;21372;-65
2024/04/20 07:44:22;;;;;;;8.60;3.53;;;;;;;4.24;91.67;96657.13;2231551;25;21109;-63
2024/04/20 07:46:58;;;;;;;5.90;2.47;;;;;;;4.27;92.87;96662.25;2225010;26;20569;-65
2024/04/20 07:49:26;;;;;;;6.32;2.70;;;;;;;4.55;91.39;96666.88;2218326;26;20580;-64
2024/04/20 07:51:35;;;;;;;8.10;3.17;;;;;;;4.57;91.43;96663.38;2269027;25;20574;-66
2024/04/20 07:53:40;;;;;;;6.72;3.15;;;;;;;4.68;92.31;96664.91;2268393;25;20628;-64
2024/04/20 07:55:40;;;;;;;7.20;2.63;;;;;;;4.70;91.33;96665.72;2252300;25;20576;-63
2024/04/20 07:57:42;;;;;;;15.75;3.30;;;;;;;4.94;90.89;96666.94;2222797;26;20583;-64
2024/04/20 07:58:44;;;;;;;6.80;3.45;;;;;;;4.96;90.46;96666.91;2221967;26;20245;-65
2024/04/20 08:00:43;;;;;;;12.02;3.20;;;;;;;4.84;90.87;96674.03;2263645;25;21119;-63
2024/04/20 08:01:45;;;;;;;10.50;3.92;;;;;;;4.89;90.97;96671.34;2269881;26;20250;-63
2024/04/20 08:02:47;;;;;;;13.02;3.70;;;;;;;4.97;89.28;96677.22;2268101;26;20263;-63
2024/04/20 08:03:48;;;;;;;17.15;3.67;;;;;;;4.92;89.66;96681.63;2266751;26;20519;-63
2024/04/20 08:04:54;;;;;;;16.73;3.45;;;;;;;4.99;89.73;96674.56;2233655;25;20374;-63
2024/04/20 08:05:56;;;;;;;11.40;3.90;;;;;;;5.02;90.39;96679.69;2236003;26;20538;-63
2024/04/20 08:09:42;;;;;;;12.77;6.68;;;;;;;5.13;90.65;96684.63;2224314;25;20577;-63
2024/04/20 08:11:38;;;;;;;7.93;3.42;;;;;;;5.23;89.61;96687.00;2243186;25;21106;-63
2024/04/20 08:24:37;;;;;;;10.52;2.95;;;;;;;5.09;88.76;96696.78;2245306;25;21104;-65
2024/04/20 08:25:39;;;;;;;9.95;2.45;;;;;;;5.20;88.83;96696.56;2234260;26;20291;-65
2024/04/20 08:27:38;;;;;;;6.28;3.40;;;;;;;5.34;88.47;96710.03;2194839;26;20580;-64
2024/04/20 08:28:40;;;;;;;8.77;2.60;;;;;;;5.51;88.52;96704.47;2194433;26;20218;-64
2024/04/20 08:29:41;;;;;;;11.13;3.63;;;;;;;5.71;87.98;96708.31;2183099;26;20575;-63
2024/04/20 08:30:43;;;;;;;7.00;2.92;;;;;;;5.89;87.22;96701.81;2177605;27;20286;-64
2024/04/20 08:31:45;;;;;;;9.02;2.85;;;;;;;5.63;85.42;96689.53;2180061;27;20351;-64
2024/04/20 08:32:46;;;;;;;6.28;3.20;;;;;;;5.68;86.22;96708.41;2179556;27;20214;-63
2024/04/20 08:33:48;;;;;;;5.50;2.97;;;;;;;5.46;84.54;96708.03;2183002;27;20329;-64
2024/04/20 08:34:53;;;;;;;7.22;3.53;;;;;;;5.37;84.89;96698.75;2169462;26;20262;-64
2024/04/20 09:03:14;;;;;;;12.15;3.58;;;;;;;4.79;91.71;96739.72;2239753;26;20623;-63
2024/04/20 09:04:17;;;;;;;7.13;4.05;;;;;;;4.87;90.27;96740.41;2226934;26;20253;-66
2024/04/20 09:06:20;;;;;;;5.25;3.65;;;;;;;5.59;91.50;96750.94;2253089;26;21074;-64
2024/04/20 09:07:23;;;;;;;5.75;3.85;;;;;;;5.78;89.59;96746.16;2258647;26;20287;-64
2024/04/20 09:08:26;;;;;;;10.85;4.03;;;;;;;6.18;86.66;96744.34;2249059;26;20223;-64
2024/04/20 09:09:28;;;;;;;7.05;3.75;;;;;;;6.32;87.63;96749.19;2237260;26;20296;-64
2024/04/20 09:10:29;;;;;;;8.30;4.10;;;;;;;7.02;87.44;96748.13;2222946;26;20266;-64
2024/04/20 09:11:31;;;;;;;6.57;3.50;;;;;;;7.13;85.80;96737.44;2226400;26;20265;-66
2024/04/20 09:12:38;;;;;;;5.32;2.80;;;;;;;7.23;83.60;96746.66;2229359;26;20218;-65
2024/04/20 09:13:39;;;;;;;7.38;3.45;;;;;;;7.14;83.99;96749.53;2228070;26;20234;-65
2024/04/20 09:14:41;;;;;;;7.72;3.38;;;;;;;7.96;83.88;96747.88;2215972;26;20255;-66
2024/04/20 09:15:47;;;;;;;10.35;3.22;;;;;;;8.42;80.85;96737.66;2209619;26;20219;-66
2024/04/20 09:16:49;;;;;;;7.65;2.83;;;;;;;8.74;78.80;96746.13;2212968;26;20337;-67
2024/04/20 09:17:50;;;;;;;9.80;4.68;;;;;;;8.56;79.40;96749.38;2209701;26;20223;-66
2024/04/20 09:18:52;;;;;;;13.73;3.33;;;;;;;8.47;78.07;96742.75;2213200;26;20271;-67
2024/04/20 09:19:56;;;;;;;14.73;5.05;;;;;;;8.16;78.65;96741.16;2208596;26;20323;-67
2024/04/20 09:20:58;;;;;;;38.97;16.08;;;;;;;8.17;76.61;96746.28;2214956;26;20224;-66
2024/04/20 09:22:10;;;;;;;7.30;2.97;;;;;;;7.98;79.42;96753.84;2214517;26;20224;-66
2024/04/20 09:23:12;;;;;;;5.82;3.10;;;;;;;7.82;79.33;96757.84;2209233;26;20303;-66
2024/04/20 09:24:13;;;;;;;6.20;2.45;;;;;;;7.76;79.80;96755.47;2209321;26;20610;-66
2024/04/20 09:25:19;;;;;;;4.45;2.58;;;;;;;7.42;80.40;96759.94;2213160;26;20593;-66
2024/04/20 09:26:21;;;;;;;8.52;2.83;;;;;;;7.59;81.04;96763.78;2222079;26;20224;-66
2024/04/20 09:27:22;;;;;;;6.45;2.38;;;;;;;7.42;79.78;96761.72;2219119;26;20274;-66
2024/04/20 09:28:27;;;;;;;11.57;2.75;;;;;;;7.31;79.23;96762.88;2209754;26;20268;-66
2024/04/20 09:29:30;;;;;;;9.48;2.22;;;;;;;6.90;78.25;96767.50;2209920;26;20698;-66
2024/04/20 09:30:31;;;;;;;4.88;2.00;;;;;;;6.83;79.08;96761.66;2216149;26;20216;-66
2024/04/20 09:31:33;;;;;;;5.68;2.10;;;;;;;7.08;78.86;96766.13;2210761;26;20220;-67
2024/04/20 09:32:35;;;;;;;6.63;2.75;;;;;;;6.89;79.22;96767.56;2210002;26;20252;-66
2024/04/20 09:33:37;;;;;;;4.50;2.20;;;;;;;6.69;79.73;96759.44;2209797;26;20692;-66
2024/04/20 09:34:39;;;;;;;6.47;2.35;;;;;;;6.62;80.28;96776.06;2207978;26;20272;-67
2024/04/20 09:35:43;;;;;;;7.38;3.22;;;;;;;6.63;81.82;96769.97;2212637;26;20225;-67
2024/04/20 09:36:45;;;;;;;6.97;2.88;;;;;;;6.80;81.29;96773.84;2214102;26;20546;-67
2024/04/20 09:37:47;;;;;;;4.00;2.47;;;;;;;6.53;81.72;96776.31;2213212;26;20298;-66
2024/04/20 09:38:49;;;;;;;6.15;1.85;;;;;;;6.41;79.56;96772.28;2214568;26;20525;-66
2024/04/20 09:39:53;;;;;;;5.90;2.60;;;;;;;6.38;80.77;96783.59;2210525;26;20252;-66
2024/04/20 09:40:56;;;;;;;7.35;2.65;;;;;;;6.33;80.62;96780.25;2211384;26;20266;-68
2024/04/20 09:42:01;;;;;;;5.93;2.65;;;;;;;6.15;81.33;96785.94;2202982;26;20220;-66
2024/04/20 09:43:04;;;;;;;7.82;2.42;;;;;;;6.24;81.40;96777.91;2206490;26;20221;-66
2024/04/20 09:44:07;;;;;;;6.78;2.20;;;;;;;5.99;81.27;96788.03;2222506;26;20228;-66
2024/04/20 09:45:11;;;;;;;10.27;2.33;;;;;;;6.13;82.19;96785.09;2218069;26;20624;-67
2024/04/20 09:46:12;;;;;;;9.23;2.70;;;;;;;5.97;80.96;96789.78;2214590;26;20998;-67
2024/04/20 09:47:15;;;;;;;5.10;1.95;;;;;;;5.76;80.84;96776.44;2214395;26;20287;-68
2024/04/20 09:48:24;;;;;;;8.65;2.47;;;;;;;5.88;81.54;96783.94;2206072;26;20220;-67
2024/04/20 09:49:31;;;;;;;4.70;2.17;;;;;;;5.75;81.10;96782.50;2213861;26;20327;-67
2024/04/20 09:50:32;;;;;;;9.30;2.63;;;;;;;5.83;80.80;96784.94;2215747;26;20557;-67
2024/04/20 09:51:40;;;;;;;4.70;2.80;;;;;;;5.79;81.63;96780.69;2217591;26;20952;-66
2024/04/20 09:53:24;;;;;;;8.20;2.97;;;;;;;5.86;81.98;96785.69;2214332;26;20317;-67
2024/04/20 09:54:28;;;;;;;5.43;1.85;;;;;;;6.09;81.35;96791.25;2210983;26;20303;-66
2024/04/20 09:55:32;;;;;;;4.80;1.95;;;;;;;6.12;80.69;96791.16;2208650;26;20223;-66
2024/04/20 09:56:35;;;;;;;5.32;2.35;;;;;;;6.40;79.37;96790.47;2206202;26;20824;-67
2024/04/20 09:57:39;;;;;;;18.92;2.75;;;;;;;7.06;78.00;96791.31;2210825;26;20250;-66
2024/04/20 09:58:42;;;;;;;8.40;2.50;;;;;;;7.77;75.93;96789.22;2212697;26;20221;-67
2024/04/20 09:59:47;;;;;;;6.93;2.40;;;;;;;8.21;75.88;96783.47;2213508;26;20389;-67
2024/04/20 10:00:49;;;;;;;7.63;2.28;;;;;;;8.33;76.14;96785.66;2215568;26;20808;-67
2024/04/20 10:01:51;;;;;;;3.42;1.98;;;;;;;8.19;74.85;96785.28;2213041;26;20709;-67
2024/04/20 10:02:58;;;;;;;4.05;1.70;;;;;;;8.42;75.00;96783.69;2210964;26;20223;-66
2024/04/20 10:04:01;;;;;;;6.70;1.98;;;;;;;8.39;74.82;96787.19;2213360;26;20217;-67
2024/04/20 10:05:04;;;;;;;7.60;2.47;;;;;;;8.02;74.95;96783.22;2210372;26;20872;-66
2024/04/20 10:06:09;;;;;;;4.72;1.80;;;;;;;8.09;73.19;96789.94;2209885;26;20276;-67
2024/04/20 10:07:13;;;;;;;5.82;2.00;;;;;;;8.40;74.74;96786.31;2213121;26;20220;-67
2024/04/20 10:08:15;;;;;;;5.88;2.03;;;;;;;8.09;72.89;96789.09;2212840;26;20216;-66
2024/04/20 10:09:21;;;;;;;10.60;2.67;;;;;;;7.98;73.69;96792.03;2218361;26;20225;-66
2024/04/20 10:10:25;;;;;;;7.63;1.60;;;;;;;7.64;72.23;96798.28;2216325;26;20596;-66
2024/04/20 10:11:27;;;;;;;4.03;1.58;;;;;;;7.60;71.45;96788.88;2212964;26;20225;-67
2024/04/20 10:12:29;;;;;;;3.65;1.40;;;;;;;7.11;71.02;96791.16;2216108;26;20220;-67
2024/04/20 10:13:31;;;;;;;7.82;1.67;;;;;;;6.95;72.56;96798.56;2231773;26;20231;-67
2024/04/20 10:14:33;;;;;;;12.13;2.10;;;;;;;6.90;72.51;96792.63;2231017;26;20289;-66
2024/04/20 10:15:35;;;;;;;7.63;1.95;;;;;;;6.75;72.79;96806.88;2220006;26;20720;-66
2024/04/20 10:16:40;;;;;;;4.00;1.83;;;;;;;7.13;73.61;96804.97;2213010;26;20921;-66
2024/04/20 10:17:42;;;;;;;6.82;1.60;;;;;;;6.85;72.64;96809.16;2208239;26;20224;-66
2024/04/20 10:18:44;;;;;;;3.97;1.48;;;;;;;6.93;72.87;96808.13;2208781;26;20213;-67
2024/04/20 10:19:46;;;;;;;8.50;1.75;;;;;;;6.94;72.55;96802.88;2210332;26;20256;-62
2024/04/20 10:20:48;;;;;;;3.30;1.60;;;;;;;6.65;72.60;96803.66;2211255;26;20239;-66
2024/04/20 10:21:50;;;;;;;14.43;3.92;;;;;;;6.69;72.63;96808.75;2208138;26;20316;-65
2024/04/20 10:22:53;;;;;;;102.03;49.25;;;;;;;6.98;73.70;96804.50;2209616;26;20266;-66
2024/04/20 10:23:57;;;;;;;21.80;9.93;;;;;;;7.10;72.56;96812.84;2205093;26;20630;-66
2024/04/20 10:25:02;;;;;;;7.78;2.45;;;;;;;7.05;71.41;96805.19;2208441;26;20291;-64
2024/04/20 10:26:04;;;;;;;5.40;1.55;;;;;;;6.71;72.36;96806.09;2206797;26;20224;-64
2024/04/20 10:27:05;;;;;;;10.02;1.85;;;;;;;6.84;73.16;96807.50;2211090;26;20260;-66
2024/04/20 10:28:07;;;;;;;4.25;1.45;;;;;;;6.85;72.30;96803.97;2208246;26;20225;-65
2024/04/20 10:29:17;;;;;;;10.32;1.85;;;;;;;6.78;71.49;96809.38;2204504;26;20213;-65
2024/04/20 10:30:21;;;;;;;7.03;1.83;;;;;;;6.96;72.72;96806.28;2206448;26;20224;-65
2024/04/20 10:31:26;;;;;;;8.45;2.08;;;;;;;7.13;72.29;96807.56;2206054;26;20363;-66
2024/04/20 10:32:28;;;;;;;3.35;1.80;;;;;;;7.17;72.07;96799.66;2207231;26;20252;-65
2024/04/20 10:33:35;;;;;;;4.78;1.70;;;;;;;6.87;72.80;96814.34;2206620;26;20228;-65
2024/04/20 10:34:37;;;;;;;4.32;1.58;;;;;;;6.48;73.75;96817.94;2204500;26;20248;-65
2024/04/20 10:35:39;;;;;;;4.53;1.50;;;;;;;6.47;74.01;96815.38;2208658;26;20217;-66
2024/04/20 10:36:41;;;;;;;2.38;1.55;;;;;;;6.69;74.80;96807.88;2205013;26;20655;-65
2024/04/20 10:37:42;;;;;;;9.75;2.00;;;;;;;6.59;73.52;96819.38;2209062;26;20217;-65
2024/04/20 10:38:44;;;;;;;8.48;2.58;;;;;;;6.72;74.23;96809.53;2209771;26;20213;-65
2024/04/20 10:39:46;;;;;;;6.18;1.98;;;;;;;6.96;74.33;96818.44;2208364;26;20253;-65
2024/04/20 10:40:47;;;;;;;3.55;1.80;;;;;;;7.10;73.92;96812.84;2204274;26;20214;-66
2024/04/20 10:41:49;;;;;;;14.18;2.65;;;;;;;7.07;72.79;96821.56;2204899;26;20671;-66
2024/04/20 10:42:50;;;;;;;4.40;1.60;;;;;;;6.91;71.71;96828.06;2202895;26;20220;-64
2024/04/20 10:43:52;;;;;;;4.55;1.48;;;;;;;7.01;72.05;96814.81;2204951;26;20307;-65
2024/04/20 10:45:06;;;;;;;4.20;1.60;;;;;;;7.03;71.11;96810.44;2204789;26;20248;-65
2024/04/20 10:46:09;;;;;;;8.85;2.00;;;;;;;7.00;72.12;96802.69;2204919;26;20224;-65
2024/04/20 10:47:17;;;;;;;6.43;1.92;;;;;;;7.08;72.07;96814.63;2204538;26;20319;-65
2024/04/20 10:48:19;;;;;;;6.63;1.98;;;;;;;7.32;72.64;96819.13;2203238;26;20264;-65
2024/04/20 10:49:21;;;;;;;2.67;1.50;;;;;;;7.52;71.20;96820.28;2204135;26;20212;-65
2024/04/20 10:50:23;;;;;;;5.47;1.88;;;;;;;7.64;72.04;96808.66;2207638;26;20549;-65
2024/04/20 10:51:26;;;;;;;11.93;2.67;;;;;;;7.76;70.91;96823.06;2205098;26;20217;-65
2024/04/20 10:52:28;;;;;;;5.53;2.35;;;;;;;7.67;70.98;96813.78;2203377;26;20221;-65
2024/04/20 10:53:30;;;;;;;5.93;2.08;;;;;;;7.62;69.87;96813.91;2204346;26;20217;-66
2024/04/20 10:54:31;;;;;;;6.53;1.80;;;;;;;7.48;70.72;96818.69;2207027;26;20260;-66
2024/04/20 10:55:33;;;;;;;5.32;2.03;;;;;;;7.66;70.67;96812.09;2216928;26;21365;-66
2024/04/20 10:56:36;;;;;;;3.35;1.83;;;;;;;7.81;69.03;96813.38;2219935;26;20220;-66
2024/04/20 10:57:38;;;;;;;9.30;1.63;;;;;;;7.95;69.91;96818.97;2223014;26;20216;-66
2024/04/20 10:58:43;;;;;;;5.38;2.00;;;;;;;8.05;70.39;96826.47;2218275;26;20224;-66
2024/04/20 10:59:45;;;;;;;5.10;2.15;;;;;;;8.01;70.10;96821.38;2206487;26;20353;-67
2024/04/20 11:00:46;;;;;;;7.10;1.88;;;;;;;7.93;70.04;96818.16;2205768;26;20230;-67
2024/04/20 11:01:48;;;;;;;4.00;1.70;;;;;;;7.75;69.18;96816.16;2204470;26;20267;-67
2024/04/20 11:02:52;;;;;;;11.18;1.90;;;;;;;7.43;68.64;96821.41;2204451;26;20221;-67
2024/04/20 11:03:56;;;;;;;5.32;1.88;;;;;;;7.64;70.72;96819.06;2205823;26;20216;-66
2024/04/20 11:04:58;;;;;;;6.45;2.03;;;;;;;8.00;69.83;96817.09;2206051;26;20287;-66
2024/04/20 11:06:00;;;;;;;8.55;2.70;;;;;;;7.93;69.48;96823.38;2207459;26;20797;-65
2024/04/20 11:07:03;;;;;;;8.77;1.95;;;;;;;7.54;67.29;96820.25;2206144;26;20213;-66
2024/04/20 11:08:07;;;;;;;4.93;1.92;;;;;;;7.67;68.79;96821.59;2200655;26;20222;-66
2024/04/20 11:09:12;;;;;;;9.27;1.98;;;;;;;7.96;69.77;96827.63;2207232;26;20209;-66
2024/04/20 11:10:17;;;;;;;11.65;2.40;;;;;;;8.22;67.77;96824.19;2205269;26;20959;-66
2024/04/20 11:11:20;;;;;;;6.32;1.90;;;;;;;8.10;66.11;96824.59;2204806;26;20372;-66
2024/04/20 11:12:22;;;;;;;5.72;2.00;;;;;;;8.35;67.87;96827.25;2202171;26;20216;-66
2024/04/20 11:13:24;;;;;;;6.93;2.10;;;;;;;8.40;67.72;96822.75;2203008;26;20291;-65
2024/04/20 11:14:26;;;;;;;4.45;1.75;;;;;;;8.02;65.70;96827.44;2201938;26;20224;-66
2024/04/20 11:15:29;;;;;;;5.55;2.00;;;;;;;7.95;66.20;96833.75;2203037;26;20225;-66
2024/04/20 11:16:31;;;;;;;3.90;1.70;;;;;;;8.10;67.63;96832.38;2208546;26;20225;-66
2024/04/20 11:17:36;;;;;;;5.30;1.80;;;;;;;7.95;66.38;96831.16;2206165;26;20216;-65
2024/04/20 11:18:40;;;;;;;18.10;2.08;;;;;;;8.16;67.52;96830.47;2205834;26;20283;-66
2024/04/20 11:19:50;;;;;;;4.25;1.70;;;;;;;7.90;66.16;96833.88;2204771;26;20257;-66
2024/04/20 11:20:52;;;;;;;3.90;1.80;;;;;;;8.03;67.64;96830.91;2207578;26;20221;-65
2024/04/20 11:21:55;;;;;;;19.65;2.40;;;;;;;8.14;66.48;96839.22;2209009;26;20326;-66
2024/04/20 11:22:59;;;;;;;9.98;2.08;;;;;;;8.20;65.88;96833.78;2208344;26;20952;-66
2024/04/20 11:24:01;;;;;;;3.53;1.85;;;;;;;8.34;66.22;96831.59;2207088;26;20224;-66
2024/04/20 11:25:10;;;;;;;4.30;1.80;;;;;;;8.58;67.23;96836.94;2218898;26;20231;-65
2024/04/20 11:26:12;;;;;;;2.78;1.85;;;;;;;8.89;66.83;96829.81;2219605;26;20937;-66
2024/04/20 11:27:14;;;;;;;6.35;2.40;;;;;;;8.80;66.06;96831.84;2223291;26;20795;-66
2024/04/20 11:28:16;;;;;;;3.72;1.70;;;;;;;8.63;64.77;96836.78;2222793;26;20212;-65
2024/04/20 11:29:18;;;;;;;4.05;1.50;;;;;;;8.89;65.29;96837.63;2214207;26;20221;-66
2024/04/20 11:30:20;;;;;;;9.00;2.70;;;;;;;8.92;65.61;96834.94;2202196;26;20217;-66
2024/04/20 11:31:21;;;;;;;8.93;1.92;;;;;;;9.15;65.44;96839.31;2207748;26;20267;-65
2024/04/20 11:32:23;;;;;;;7.13;2.30;;;;;;;8.95;65.02;96838.28;2208737;26;20667;-66
2024/04/20 11:33:24;;;;;;;4.75;1.95;;;;;;;8.66;63.82;96834.91;2205401;26;20221;-65
2024/04/20 11:34:26;;;;;;;7.38;2.35;;;;;;;8.83;65.51;96839.53;2203118;26;20512;-65
2024/04/20 11:35:29;;;;;;;4.80;2.15;;;;;;;8.36;64.39;96836.75;2204286;26;20218;-66
2024/04/20 11:36:31;;;;;;;7.78;2.10;;;;;;;8.59;64.68;96832.56;2206027;26;20214;-66
2024/04/20 11:37:32;;;;;;;11.30;2.30;;;;;;;8.31;65.98;96834.28;2207929;26;20317;-66
2024/04/20 11:38:34;;;;;;;4.43;2.17;;;;;;;8.40;65.46;96832.31;2201442;26;21219;-65
2024/04/20 11:39:36;;;;;;;4.75;1.90;;;;;;;8.52;65.40;96834.53;2202027;26;20713;-66
2024/04/20 11:40:37;;;;;;;5.75;2.13;;;;;;;8.46;65.07;96832.16;2203048;26;20224;-65
2024/04/20 11:41:39;;;;;;;7.47;2.45;;;;;;;8.31;65.32;96846.47;2202877;26;20275;-66
2024/04/20 11:42:43;;;;;;;5.88;2.20;;;;;;;8.50;66.51;96837.19;2204353;26;20290;-65
2024/04/20 11:43:44;;;;;;;4.00;2.17;;;;;;;8.77;67.15;96836.31;2206801;26;20217;-66
2024/04/20 11:44:49;;;;;;;5.03;1.92;;;;;;;8.76;65.39;96839.81;2206709;26;20688;-66
2024/04/20 11:45:54;;;;;;;6.63;2.03;;;;;;;9.08;65.39;96835.25;2206444;26;20240;-66
2024/04/20 11:46:56;;;;;;;7.18;2.30;;;;;;;8.94;65.25;96835.72;2204938;26;20280;-66
2024/04/20 11:47:57;;;;;;;11.75;2.03;;;;;;;9.08;64.06;96835.25;2210626;26;20267;-65
2024/04/20 11:49:15;;;;;;;4.20;2.67;;;;;;;9.40;65.12;96831.44;2214324;26;20215;-65
2024/04/20 11:50:16;;;;;;;4.70;2.13;;;;;;;9.31;63.87;96827.44;2221747;26;20308;-66
2024/04/20 11:54:21;;;;;;;3.47;2.00;;;;;;;9.58;63.33;96827.31;2222208;26;20951;-65
2024/04/20 11:55:22;;;;;;;10.35;2.63;;;;;;;9.90;61.31;96826.97;2220866;26;20215;-65
2024/04/20 11:56:24;;;;;;;8.35;2.45;;;;;;;9.65;60.56;96820.13;2220404;26;20250;-65
2024/04/20 11:57:26;;;;;;;4.15;1.90;;;;;;;9.73;61.62;96822.44;2221224;26;20270;-65
2024/04/20 11:58:27;;;;;;;5.93;2.20;;;;;;;10.47;61.84;96832.56;2218917;26;20221;-65
2024/04/20 11:59:29;;;;;;;5.75;1.95;;;;;;;11.43;59.72;96834.53;2218036;26;20243;-65
2024/04/20 12:00:30;;;;;;;6.82;2.03;;;;;;;11.15;58.98;96823.59;2221434;26;20262;-65
2024/04/20 12:01:32;;;;;;;9.85;2.08;;;;;;;11.83;57.22;96829.22;2218502;26;20705;-65
2024/04/20 12:02:34;;;;;;;7.32;2.10;;;;;;;12.19;57.69;96835.44;2216654;26;20283;-65
2024/04/20 12:03:36;;;;;;;4.15;1.98;;;;;;;12.89;56.88;96832.88;2219687;26;20233;-65
2024/04/20 12:04:37;;;;;;;7.40;2.08;;;;;;;13.18;54.76;96827.91;2222926;26;20259;-65
2024/04/20 12:05:39;;;;;;;3.10;1.80;;;;;;;13.10;56.41;96827.47;2221196;26;20235;-65
2024/04/20 12:06:41;;;;;;;4.95;1.88;;;;;;;12.30;55.05;96832.31;2223130;26;20521;-65
2024/04/20 12:07:48;;;;;;;5.07;1.58;;;;;;;12.06;56.01;96830.81;2223093;26;20316;-65
2024/04/20 12:08:49;;;;;;;5.70;1.90;;;;;;;11.75;55.31;96832.19;2218191;26;20713;-65
2024/04/20 12:09:51;;;;;;;8.55;1.60;;;;;;;11.60;56.42;96831.16;2221350;26;20247;-65
2024/04/20 12:10:53;;;;;;;4.32;1.70;;;;;;;12.36;56.50;96826.78;2220652;26;20529;-65
2024/04/20 12:11:55;;;;;;;7.85;1.80;;;;;;;12.83;55.42;96833.19;2220700;26;20547;-66
2024/04/20 12:12:56;;;;;;;7.40;2.10;;;;;;;13.11;53.65;96823.91;2221317;26;20258;-67
2024/04/20 12:13:58;;;;;;;6.38;2.13;;;;;;;13.01;53.24;96824.38;2220948;26;20258;-68
2024/04/20 12:15:00;;;;;;;5.03;2.25;;;;;;;13.22;53.16;96819.78;2219340;26;20356;-67
2024/04/20 12:16:02;;;;;;;4.32;2.05;;;;;;;12.56;54.47;96831.03;2220806;26;20224;-67
2024/04/20 12:17:04;;;;;;;9.23;2.05;;;;;;;13.57;56.93;96832.00;2219186;26;20264;-68
2024/04/20 12:18:06;;;;;;;7.47;2.13;;;;;;;13.43;54.54;96834.50;2218355;26;20296;-68
2024/04/20 12:19:08;;;;;;;8.32;1.60;;;;;;;13.15;53.20;96830.69;2217563;26;20227;-68
2024/04/20 12:20:12;;;;;;;9.82;1.65;;;;;;;13.38;56.61;96827.75;2211767;26;20598;-68
2024/04/20 12:21:16;;;;;;;5.90;1.70;;;;;;;14.13;54.80;96834.22;2218664;26;20272;-68
2024/04/20 12:22:18;;;;;;;9.80;1.88;;;;;;;14.45;53.92;96819.28;2219075;26;20216;-68
2024/04/20 12:23:19;;;;;;;2.92;1.30;;;;;;;13.53;51.20;96823.47;2219266;26;20224;-68
2024/04/20 12:24:21;;;;;;;5.75;1.50;;;;;;;13.64;51.47;96822.88;2220062;26;20275;-68
2024/04/20 12:25:23;;;;;;;3.75;1.20;;;;;;;13.81;51.58;96816.69;2216874;26;20838;-68
2024/04/20 12:26:25;;;;;;;5.05;2.08;;;;;;;14.48;51.37;96823.50;2210076;26;20251;-69
2024/04/20 12:27:27;;;;;;;7.15;2.30;;;;;;;13.82;51.53;96821.00;2211265;26;20986;-68
2024/04/20 12:28:28;;;;;;;3.55;1.60;;;;;;;13.48;51.08;96820.22;2230021;26;20336;-68
2024/04/20 12:29:30;;;;;;;6.82;2.00;;;;;;;13.96;53.03;96816.78;2220958;26;20251;-68
2024/04/20 12:30:31;;;;;;;5.00;1.35;;;;;;;15.14;52.30;96821.44;2220096;26;20215;-68
2024/04/20 12:31:33;;;;;;;3.75;1.83;;;;;;;14.65;49.91;96823.41;2220539;26;20713;-68
2024/04/20 12:32:35;;;;;;;10.00;2.58;;;;;;;13.84;50.85;96818.28;2220013;26;20220;-68
2024/04/20 12:33:38;;;;;;;7.93;3.00;;;;;;;13.96;51.60;96819.41;2220165;26;20208;-68
2024/04/20 12:34:40;;;;;;;10.32;2.00;;;;;;;14.35;52.35;96824.19;2219626;26;20813;-68
2024/04/20 12:35:41;;;;;;;2.63;1.45;;;;;;;15.00;50.36;96817.00;2217653;26;20271;-68
2024/04/20 12:36:46;;;;;;;3.20;1.30;;;;;;;15.33;48.27;96823.78;2218741;26;20526;-68
2024/04/20 12:37:48;;;;;;;2.53;1.30;;;;;;;14.93;48.13;96819.16;2219214;26;20212;-68
2024/04/20 12:38:49;;;;;;;5.88;1.50;;;;;;;14.68;49.87;96823.22;2217523;26;20221;-68
2024/04/20 12:39:51;;;;;;;7.85;1.80;;;;;;;14.41;48.49;96815.13;2219213;26;20247;-68
2024/04/20 12:40:54;;;;;;;4.72;1.30;;;;;;;14.60;49.68;96819.31;2221313;26;21070;-68
2024/04/20 12:41:55;;;;;;;25.05;13.10;;;;;;;14.67;47.93;96818.88;2218513;26;20506;-67
2024/04/20 12:42:57;;;;;;;11.68;5.10;;;;;;;14.29;48.23;96814.03;2220387;26;20224;-69
2024/04/20 12:43:58;;;;;;;7.32;2.88;;;;;;;14.56;48.82;96812.53;2219524;26;20284;-69
2024/04/20 12:45:01;;;;;;;3.17;1.55;;;;;;;13.90;47.87;96817.97;2219478;26;20953;-69
2024/04/20 12:46:05;;;;;;;13.82;4.38;;;;;;;13.68;49.50;96810.44;2204869;26;20220;-69
2024/04/20 12:47:07;;;;;;;7.72;3.35;;;;;;;13.60;51.21;96810.00;2204995;26;20682;-69
2024/04/20 12:48:09;;;;;;;9.88;4.40;;;;;;;13.10;50.84;96809.09;2219904;26;20220;-69
2024/04/20 12:49:11;;;;;;;3.65;1.67;;;;;;;13.25;50.75;96813.53;2228885;26;20215;-68
2024/04/20 12:50:13;;;;;;;5.22;1.98;;;;;;;13.45;51.78;96807.28;2232794;26;20222;-69
2024/04/20 12:51:14;;;;;;;7.05;2.00;;;;;;;13.33;50.73;96816.63;2214318;26;20271;-69
2024/04/20 12:52:17;;;;;;;3.30;1.75;;;;;;;12.42;50.86;96823.88;2216651;26;20208;-69
2024/04/20 12:53:19;;;;;;;7.53;1.77;;;;;;;13.55;52.30;96816.34;2213555;26;20224;-69
2024/04/20 12:54:22;;;;;;;3.67;1.55;;;;;;;13.37;50.02;96817.34;2213647;26;20233;-69
2024/04/20 12:55:23;;;;;;;5.55;1.55;;;;;;;12.80;51.26;96813.25;2215586;26;20220;-69
2024/04/20 12:56:25;;;;;;;6.68;1.90;;;;;;;12.98;50.72;96818.47;2215063;26;20224;-69
2024/04/20 12:57:31;;;;;;;4.75;1.60;;;;;;;13.41;51.06;96816.25;2215007;26;20294;-70
2024/04/20 12:58:33;;;;;;;4.20;1.65;;;;;;;13.06;50.19;96817.16;2212304;26;20666;-69
2024/04/20 12:59:35;;;;;;;2.90;1.30;;;;;;;12.97;51.78;96814.97;2211516;26;20287;-69
2024/04/20 13:00:36;;;;;;;6.85;1.90;;;;;;;13.06;50.76;96821.53;2217550;26;20220;-69
2024/04/20 13:01:38;;;;;;;7.97;1.52;;;;;;;12.39;51.50;96824.00;2219302;26;20213;-69
2024/04/20 13:02:40;;;;;;;3.40;1.20;;;;;;;12.50;51.78;96818.25;2219729;26;20266;-69
2024/04/20 13:03:41;;;;;;;8.35;1.90;;;;;;;11.88;52.02;96819.41;2220222;26;20227;-69
2024/04/20 13:04:43;;;;;;;5.18;1.65;;;;;;;12.05;52.65;96818.63;2215727;26;20727;-69
2024/04/20 13:05:45;;;;;;;2.80;1.40;;;;;;;11.96;51.95;96823.47;2220245;26;20327;-69
2024/04/20 13:06:46;;;;;;;2.58;1.42;;;;;;;12.47;51.48;96813.13;2217391;26;20302;-69
2024/04/20 13:07:48;;;;;;;3.65;1.67;;;;;;;12.96;51.43;96821.16;2214066;26;20321;-69
2024/04/20 13:08:49;;;;;;;5.82;1.92;;;;;;;12.09;51.22;96817.56;2221252;26;20217;-69
2024/04/20 13:09:52;;;;;;;7.00;1.50;;;;;;;11.94;51.71;96818.28;2220154;26;20307;-69
2024/04/20 13:10:54;;;;;;;3.42;1.25;;;;;;;13.14;50.08;96813.25;2221921;26;20255;-69
2024/04/20 13:11:56;;;;;;;7.30;1.92;;;;;;;12.24;48.33;96813.38;2220293;26;20230;-69
2024/04/20 13:12:57;;;;;;;4.90;1.75;;;;;;;12.45;49.68;96810.59;2216668;26;20261;-69
2024/04/20 13:13:59;;;;;;;3.13;1.38;;;;;;;13.12;49.78;96802.03;2213485;26;20263;-69
2024/04/20 13:15:00;;;;;;;11.30;2.40;;;;;;;13.07;49.57;96810.13;2212615;26;20252;-69
2024/04/20 13:16:02;;;;;;;10.10;1.50;;;;;;;13.32;51.05;96811.44;2216234;26;20962;-69
2024/04/20 13:17:04;;;;;;;4.13;1.45;;;;;;;12.35;50.50;96809.38;2219841;26;20354;-69
2024/04/20 13:18:06;;;;;;;3.30;1.60;;;;;;;12.11;51.03;96811.41;2222666;26;20215;-69
2024/04/20 13:19:08;;;;;;;2.33;1.25;;;;;;;12.67;51.81;96812.16;2226941;26;20219;-69
2024/04/20 13:20:09;;;;;;;5.80;1.30;;;;;;;12.37;52.25;96810.16;2189383;26;20254;-69
2024/04/20 13:21:11;;;;;;;8.77;1.80;;;;;;;12.29;51.39;96813.16;2206603;26;20322;-69